createdAt,value
2019-02-02T00:01:01.461Z,57.84
2019-02-02T00:04:08.635Z,56.93
2019-02-02T00:07:14.597Z,57.26
2019-02-02T00:10:20.549Z,57.27
2019-02-02T00:13:26.388Z,57.01
2019-02-02T00:16:32.286Z,57.32
2019-02-02T00:19:39.128Z,57.05
2019-02-02T00:22:45.196Z,56.44
2019-02-02T00:25:51.038Z,56.82
2019-02-02T00:28:57.002Z,56.29
2019-02-02T00:32:02.981Z,55.46
2019-02-02T00:35:09.027Z,55.62
2019-02-02T00:38:15.114Z,56.21
2019-02-02T00:41:21.062Z,56.09
2019-02-02T00:44:27.094Z,56.69
2019-02-02T00:47:32.929Z,57.78
2019-02-02T00:50:38.865Z,56.94
2019-02-02T00:53:44.842Z,57.90
2019-02-02T00:56:50.722Z,59.74
2019-02-02T00:59:56.707Z,58.95
2019-02-02T01:03:02.797Z,58.51
2019-02-02T01:06:08.874Z,57.97
2019-02-02T01:09:26.059Z,59.02
2019-02-02T01:12:31.917Z,57.79
2019-02-02T01:15:37.898Z,57.57
2019-02-02T01:18:43.812Z,58.78
2019-02-02T01:21:49.801Z,58.91
2019-02-02T01:24:55.827Z,57.60
2019-02-02T01:28:05.281Z,58.00
2019-02-02T01:31:09.396Z,56.81
2019-02-02T01:34:15.367Z,56.57
2019-02-02T01:37:21.264Z,56.38
2019-02-02T01:40:27.280Z,56.33
2019-02-02T01:43:33.313Z,56.16
2019-02-02T01:46:39.318Z,55.86
2019-02-02T01:49:45.201Z,56.32
2019-02-02T01:52:51.129Z,57.01
2019-02-02T01:55:57.021Z,56.96
2019-02-02T01:59:04.120Z,57.17
2019-02-02T02:02:10.074Z,56.53
2019-02-02T02:05:16.242Z,56.24
2019-02-02T02:08:22.160Z,56.06
2019-02-02T02:11:28.057Z,56.46
2019-02-02T02:14:33.917Z,56.98
2019-02-02T02:17:40.660Z,56.83
2019-02-02T02:20:46.580Z,56.62
2019-02-02T02:23:52.551Z,57.38
2019-02-02T02:26:58.439Z,57.15
2019-02-02T02:30:04.922Z,57.54
2019-02-02T02:33:11.426Z,57.54
2019-02-02T02:36:17.329Z,58.47
2019-02-02T02:39:23.251Z,57.93
2019-02-02T02:42:29.334Z,58.44
2019-02-02T02:45:35.116Z,57.25
2019-02-02T02:48:41.011Z,58.11
2019-02-02T02:51:46.880Z,57.39
2019-02-02T02:54:52.739Z,57.69
2019-02-02T02:57:58.593Z,59.34
2019-02-02T03:01:04.813Z,61.02
2019-02-02T03:04:10.733Z,60.19
2019-02-02T03:07:19.406Z,59.06
2019-02-02T03:10:25.176Z,58.92
2019-02-02T03:13:31.043Z,58.57
2019-02-02T03:16:36.964Z,58.25
2019-02-02T03:19:42.876Z,58.44
2019-02-02T03:22:48.906Z,58.08
2019-02-02T03:25:55.063Z,58.07
2019-02-02T03:29:00.996Z,58.79
2019-02-02T03:32:07.131Z,58.24
2019-02-02T03:35:14.289Z,57.89
2019-02-02T03:38:20.138Z,57.73
2019-02-02T03:41:26.065Z,59.87
2019-02-02T03:44:31.972Z,59.20
2019-02-02T03:47:37.784Z,59.53
2019-02-02T03:50:43.751Z,59.24
2019-02-02T03:53:49.574Z,58.89
2019-02-02T03:56:55.413Z,58.33
2019-02-02T04:00:01.401Z,58.59
2019-02-02T04:03:07.764Z,57.87
2019-02-02T04:06:13.695Z,58.11
2019-02-02T04:09:19.602Z,57.96
2019-02-02T04:12:25.517Z,57.56
2019-02-02T04:15:31.455Z,57.76
2019-02-02T04:18:37.339Z,57.68
2019-02-02T04:21:43.285Z,59.84
2019-02-02T04:24:50.338Z,59.88
2019-02-02T04:27:56.362Z,59.70
2019-02-02T04:31:02.205Z,60.85
2019-02-02T04:34:08.165Z,60.84
2019-02-02T04:37:14.047Z,60.09
2019-02-02T04:40:20.591Z,59.83
2019-02-02T04:43:26.666Z,59.06
2019-02-02T04:46:32.526Z,59.06
2019-02-02T04:49:38.382Z,59.49
2019-02-02T04:52:44.333Z,61.27
2019-02-02T04:55:50.316Z,61.00
2019-02-02T04:58:56.265Z,60.48
2019-02-02T05:02:02.130Z,60.62
2019-02-02T05:05:09.522Z,60.71
2019-02-02T05:08:15.477Z,60.20
2019-02-02T05:11:21.376Z,60.26
2019-02-02T05:14:27.255Z,61.30
2019-02-02T05:17:33.222Z,61.43
2019-02-02T05:20:39.075Z,60.59
2019-02-02T05:23:44.925Z,62.17
2019-02-02T05:26:50.925Z,59.87
2019-02-02T05:29:56.882Z,59.49
2019-02-02T05:33:02.931Z,60.27
2019-02-02T05:36:08.877Z,60.01
2019-02-02T05:39:15.052Z,59.99
2019-02-02T05:42:21.014Z,59.12
2019-02-02T05:45:26.926Z,61.54
2019-02-02T05:48:32.878Z,61.03
2019-02-02T05:51:38.833Z,59.65
2019-02-02T05:54:44.656Z,60.51
2019-02-02T05:57:50.589Z,62.42
2019-02-02T06:00:57.588Z,60.59
2019-02-02T06:04:03.481Z,59.30
2019-02-02T06:07:09.425Z,58.17
2019-02-02T06:10:16.462Z,57.78
2019-02-02T06:13:22.309Z,57.92
2019-02-02T06:16:28.262Z,58.12
2019-02-02T06:19:34.115Z,57.88
2019-02-02T06:22:39.969Z,58.61
2019-02-02T06:25:45.821Z,57.91
2019-02-02T06:28:51.715Z,57.39
2019-02-02T06:31:57.557Z,59.42
2019-02-02T06:35:03.518Z,58.06
2019-02-02T06:38:09.564Z,58.15
2019-02-02T06:41:15.400Z,57.89
2019-02-02T06:44:21.360Z,57.51
2019-02-02T06:47:27.220Z,57.60
2019-02-02T06:50:33.175Z,57.38
2019-02-02T06:53:39.157Z,56.40
2019-02-02T06:56:45.039Z,57.43
2019-02-02T06:59:51.004Z,56.90
2019-02-02T07:02:57.236Z,56.69
2019-02-02T07:06:03.121Z,55.60
2019-02-02T07:09:10.356Z,55.63
2019-02-02T07:12:16.331Z,55.83
2019-02-02T07:15:24.602Z,55.55
2019-02-02T07:18:30.550Z,55.02
2019-02-02T07:21:36.469Z,55.81
2019-02-02T07:24:42.420Z,55.39
2019-02-02T07:27:48.247Z,54.83
2019-02-02T07:30:54.233Z,54.72
2019-02-02T07:34:00.256Z,56.63
2019-02-02T07:37:06.269Z,55.88
2019-02-02T07:40:13.466Z,56.78
2019-02-02T07:43:19.313Z,57.43
2019-02-02T07:46:25.289Z,57.04
2019-02-02T07:49:31.228Z,57.92
2019-02-02T07:52:37.201Z,58.03
2019-02-02T07:55:43.051Z,58.24
2019-02-02T07:58:49.011Z,57.59
2019-02-02T08:01:54.892Z,57.02
2019-02-02T08:05:00.841Z,56.34
2019-02-02T08:08:07.269Z,55.88
2019-02-02T08:11:13.271Z,55.99
2019-02-02T08:14:20.167Z,54.97
2019-02-02T08:17:26.119Z,55.33
2019-02-02T08:20:32.077Z,55.21
2019-02-02T08:23:37.945Z,54.80
2019-02-02T08:26:43.902Z,54.68
2019-02-02T08:29:49.749Z,55.07
2019-02-02T08:32:55.700Z,54.76
2019-02-02T08:36:04.076Z,54.38
2019-02-02T08:39:10.875Z,54.70
2019-02-02T08:42:16.771Z,54.64
2019-02-02T08:45:22.971Z,53.80
2019-02-02T08:48:29.944Z,53.44
2019-02-02T08:51:35.879Z,53.94
2019-02-02T08:54:41.738Z,54.13
2019-02-02T08:57:47.726Z,53.83
2019-02-02T09:01:03.754Z,52.25
2019-02-02T09:04:01.378Z,51.66
2019-02-02T09:07:07.409Z,50.97
2019-02-02T09:10:16.597Z,49.22
2019-02-02T09:13:22.560Z,50.12
2019-02-02T09:16:28.551Z,48.45
2019-02-02T09:19:34.451Z,48.44
2019-02-02T09:22:40.520Z,48.32
2019-02-02T09:25:46.541Z,47.74
2019-02-02T09:28:52.391Z,48.85
2019-02-02T09:31:58.424Z,49.99
2019-02-02T09:35:06.838Z,48.96
2019-02-02T09:38:12.830Z,49.38
2019-02-02T09:41:18.735Z,49.66
2019-02-02T09:44:24.581Z,48.86
2019-02-02T09:47:30.988Z,48.75
2019-02-02T09:50:37.065Z,50.68
2019-02-02T09:53:42.962Z,50.19
2019-02-02T09:56:48.834Z,50.81
2019-02-02T09:59:54.678Z,49.84
2019-02-02T10:03:00.871Z,49.74
2019-02-02T10:06:06.988Z,50.49
2019-02-02T10:09:12.939Z,50.09
2019-02-02T10:12:21.004Z,50.08
2019-02-02T10:15:26.630Z,50.44
2019-02-02T10:21:57.221Z,50.61
2019-02-02T10:25:03.148Z,49.94
2019-02-02T10:28:09.161Z,49.44
2019-02-02T10:31:15.139Z,47.93
2019-02-02T10:34:21.031Z,48.25
2019-02-02T10:37:26.913Z,47.17
2019-02-02T10:40:32.801Z,48.22
2019-02-02T10:43:38.588Z,47.57
2019-02-02T10:46:44.594Z,48.52
2019-02-02T10:49:50.483Z,47.36
2019-02-02T10:52:56.439Z,46.68
2019-02-02T10:56:02.359Z,45.71
2019-02-02T10:59:09.105Z,45.10
2019-02-02T11:02:17.744Z,44.06
2019-02-02T11:05:22.606Z,43.49
2019-02-02T11:08:28.495Z,42.79
2019-02-02T11:11:34.298Z,41.83
2019-02-02T11:14:40.082Z,42.65
2019-02-02T11:17:46.091Z,42.25
2019-02-02T11:20:51.934Z,42.83
2019-02-02T11:23:57.972Z,43.63
2019-02-02T11:27:04.243Z,43.93
2019-02-02T11:30:11.856Z,46.54
2019-02-02T11:33:17.644Z,44.07
2019-02-02T11:36:23.527Z,44.60
2019-02-02T11:39:29.326Z,44.25
2019-02-02T11:42:35.347Z,46.16
2019-02-02T11:45:41.344Z,45.34
2019-02-02T11:48:47.165Z,46.58
2019-02-02T11:51:53.117Z,46.67
2019-02-02T11:54:58.928Z,47.17
2019-02-02T11:58:04.842Z,47.21
2019-02-02T12:01:10.705Z,47.83
2019-02-02T12:04:16.500Z,46.27
2019-02-02T12:07:22.272Z,47.59
2019-02-02T12:10:28.759Z,47.01
2019-02-02T12:13:34.570Z,46.33
2019-02-02T12:16:40.433Z,46.24
2019-02-02T12:19:46.204Z,47.71
2019-02-02T12:22:52.189Z,47.15
2019-02-02T12:25:58.260Z,45.65
2019-02-02T12:29:04.349Z,46.00
2019-02-02T12:32:10.318Z,45.01
2019-02-02T12:35:18.714Z,44.62
2019-02-02T12:38:24.629Z,46.15
2019-02-02T12:41:30.569Z,45.80
2019-02-02T12:44:36.476Z,45.10
2019-02-02T12:47:43.397Z,43.79
2019-02-02T12:50:49.371Z,44.30
2019-02-02T12:53:55.841Z,45.96
2019-02-02T12:57:01.899Z,44.98
2019-02-02T13:00:11.616Z,46.07
2019-02-02T13:03:17.659Z,46.51
2019-02-02T13:06:23.502Z,47.25
2019-02-02T13:09:29.265Z,48.74
2019-02-02T13:12:36.830Z,48.50
2019-02-02T13:15:42.634Z,48.02
2019-02-02T13:18:48.468Z,49.56
2019-02-02T13:21:54.403Z,49.08
2019-02-02T13:25:00.358Z,49.43
2019-02-02T13:28:06.436Z,50.12
2019-02-02T13:31:12.216Z,50.41
2019-02-02T13:34:17.985Z,49.72
2019-02-02T13:37:24.187Z,51.32
2019-02-02T13:40:30.103Z,49.01
2019-02-02T13:43:35.918Z,48.88
2019-02-02T13:46:41.720Z,51.21
2019-02-02T13:49:47.509Z,50.75
2019-02-02T13:52:53.724Z,50.85
2019-02-02T13:55:59.611Z,51.83
2019-02-02T13:59:05.615Z,50.86
2019-02-02T14:02:12.506Z,51.77
2019-02-02T14:05:18.948Z,58.92
2019-02-02T14:08:24.720Z,55.72
2019-02-02T14:11:30.500Z,50.22
2019-02-02T14:14:36.394Z,52.05
2019-02-02T14:17:42.244Z,50.40
2019-02-02T14:20:49.507Z,51.25
2019-02-02T14:23:55.273Z,51.53
2019-02-02T14:27:01.087Z,51.70
2019-02-02T14:30:13.007Z,55.06
2019-02-02T14:33:19.250Z,57.42
2019-02-02T14:36:25.011Z,56.06
2019-02-02T14:39:30.761Z,53.13
2019-02-02T14:42:36.532Z,55.35
2019-02-02T14:45:42.285Z,51.81
2019-02-02T14:48:48.070Z,50.75
2019-02-02T14:51:53.994Z,50.30
2019-02-02T14:54:59.828Z,50.10
2019-02-02T14:58:06.259Z,50.28
2019-02-02T15:01:12.022Z,50.18
2019-02-02T15:04:17.934Z,49.83
2019-02-02T15:07:23.685Z,50.75
2019-02-02T15:10:29.506Z,51.18
2019-02-02T15:13:35.248Z,51.84
2019-02-02T15:16:41.058Z,51.45
2019-02-02T15:19:46.819Z,51.60
2019-02-02T15:22:52.879Z,51.74
2019-02-02T15:25:58.616Z,52.00
2019-02-02T15:29:04.502Z,52.35
2019-02-02T15:32:10.986Z,52.16
2019-02-02T15:35:17.146Z,52.69
2019-02-02T15:38:23.048Z,52.63
2019-02-02T15:41:29.059Z,52.66
2019-02-02T15:44:34.951Z,52.88
2019-02-02T15:47:40.724Z,53.04
2019-02-02T15:50:46.775Z,53.45
2019-02-02T15:53:52.780Z,53.83
2019-02-02T15:56:58.593Z,54.01
2019-02-02T16:00:05.061Z,53.92
2019-02-02T16:03:12.375Z,54.28
2019-02-02T16:06:18.251Z,54.30
2019-02-02T16:09:24.143Z,54.32
2019-02-02T16:12:30.337Z,54.67
2019-02-02T16:15:36.143Z,54.78
2019-02-02T16:18:41.888Z,54.99
2019-02-02T16:21:47.676Z,54.96
2019-02-02T16:24:53.503Z,55.24
2019-02-02T16:27:59.415Z,55.38
2019-02-02T16:31:05.322Z,55.48
2019-02-02T16:34:11.284Z,55.54
2019-02-02T16:37:17.128Z,55.70
2019-02-02T16:40:24.695Z,55.82
2019-02-02T16:43:30.487Z,56.14
2019-02-02T16:46:36.518Z,56.13
2019-02-02T16:49:42.332Z,56.41
2019-02-02T16:52:48.558Z,56.41
2019-02-02T16:55:54.356Z,56.62
2019-02-02T16:59:00.141Z,56.63
2019-02-02T17:02:06.104Z,56.65
2019-02-02T17:05:12.238Z,57.13
2019-02-02T17:08:18.027Z,57.03
2019-02-02T17:11:23.801Z,56.97
2019-02-02T17:14:29.600Z,57.10
2019-02-02T17:17:35.421Z,57.43
2019-02-02T17:20:43.524Z,57.18
2019-02-02T17:23:49.297Z,57.11
2019-02-02T17:26:55.165Z,57.40
2019-02-02T17:30:01.003Z,57.46
2019-02-02T17:33:11.061Z,57.25
2019-02-02T17:36:16.816Z,57.38
2019-02-02T17:39:22.599Z,57.38
2019-02-02T17:42:28.352Z,57.41
2019-02-02T17:45:34.247Z,57.47
2019-02-02T17:48:40.012Z,57.42
2019-02-02T17:51:45.995Z,57.29
2019-02-02T17:54:51.777Z,57.66
2019-02-02T17:57:57.695Z,57.50
2019-02-02T18:01:03.751Z,58.05
2019-02-02T18:04:09.612Z,58.07
2019-02-02T18:07:15.568Z,57.76
2019-02-02T18:10:21.553Z,59.09
2019-02-02T18:13:27.367Z,58.30
2019-02-02T18:16:33.299Z,58.59
2019-02-02T18:19:39.124Z,58.48
2019-02-02T18:22:45.098Z,58.70
2019-02-02T18:25:50.904Z,58.39
2019-02-02T18:28:57.743Z,58.72
2019-02-02T18:32:12.781Z,58.91
2019-02-02T18:35:11.935Z,58.90
2019-02-02T18:38:17.738Z,59.20
2019-02-02T18:41:23.605Z,59.51
2019-02-02T18:44:29.397Z,59.38
2019-02-02T18:47:35.162Z,59.26
2019-02-02T18:50:40.936Z,58.93
2019-02-02T18:53:46.808Z,59.60
2019-02-02T18:56:53.075Z,59.72
2019-02-02T18:59:59.553Z,59.56
2019-02-02T19:03:11.329Z,59.64
2019-02-02T19:06:18.359Z,59.48
2019-02-02T19:09:25.704Z,59.65
2019-02-02T19:12:31.996Z,60.15
2019-02-02T19:15:37.881Z,60.12
2019-02-02T19:18:43.688Z,60.23
2019-02-02T19:21:49.457Z,60.28
2019-02-02T19:24:55.212Z,59.96
2019-02-02T19:28:01.029Z,60.21
2019-02-02T19:31:07.252Z,62.04
2019-02-02T19:34:13.024Z,62.37
2019-02-02T19:37:21.061Z,60.86
2019-02-02T19:40:26.466Z,60.65
2019-02-02T19:43:32.396Z,60.49
2019-02-02T19:46:38.231Z,59.90
2019-02-02T19:49:43.999Z,59.56
2019-02-02T19:52:50.129Z,59.44
2019-02-02T19:55:56.065Z,59.85
2019-02-02T19:59:01.923Z,59.42
2019-02-02T20:02:07.781Z,59.63
2019-02-02T20:05:14.283Z,59.55
2019-02-02T20:08:20.040Z,59.63
2019-02-02T20:11:25.857Z,59.85
2019-02-02T20:14:31.662Z,59.64
2019-02-02T20:17:37.532Z,59.83
2019-02-02T20:20:43.487Z,59.48
2019-02-02T20:23:49.272Z,60.21
2019-02-02T20:26:55.066Z,60.08
2019-02-02T20:30:00.863Z,60.38
2019-02-02T20:33:07.026Z,60.21
2019-02-02T20:36:13.928Z,59.94
2019-02-02T20:39:19.705Z,60.16
2019-02-02T20:42:25.475Z,59.74
2019-02-02T20:45:33.444Z,59.98
2019-02-02T20:48:39.253Z,59.71
2019-02-02T20:51:45.036Z,60.34
2019-02-02T20:54:50.862Z,60.32
2019-02-02T20:57:56.739Z,60.06
2019-02-02T21:01:02.523Z,60.35
2019-02-02T21:04:08.765Z,60.39
2019-02-02T21:07:14.618Z,60.65
2019-02-02T21:10:21.804Z,62.83
2019-02-02T21:13:27.571Z,61.95
2019-02-02T21:16:33.347Z,61.66
2019-02-02T21:19:39.166Z,62.17
2019-02-02T21:22:45.027Z,61.79
2019-02-02T21:25:50.821Z,61.01
2019-02-02T21:28:56.713Z,60.65
2019-02-02T21:32:02.509Z,60.91
2019-02-02T21:35:08.465Z,60.30
2019-02-02T21:38:14.570Z,60.22
2019-02-02T21:41:20.385Z,60.23
2019-02-02T21:44:26.158Z,60.62
2019-02-02T21:47:33.147Z,61.32
2019-02-02T21:50:38.908Z,60.71
2019-02-02T21:53:44.709Z,60.21
2019-02-02T21:56:50.602Z,60.79
2019-02-02T21:59:56.765Z,60.60
2019-02-02T22:03:02.625Z,60.32
2019-02-02T22:06:15.655Z,61.19
2019-02-02T22:09:16.785Z,60.43
2019-02-02T22:12:23.027Z,60.68
2019-02-02T22:15:29.521Z,60.45
2019-02-02T22:18:35.378Z,60.37
2019-02-02T22:21:41.492Z,61.92
2019-02-02T22:24:47.259Z,60.97
2019-02-02T22:27:53.470Z,61.95
2019-02-02T22:31:00.368Z,61.30
2019-02-02T22:34:06.215Z,60.53
2019-02-02T22:37:12.150Z,60.71
2019-02-02T22:40:20.356Z,60.65
2019-02-02T22:43:26.175Z,60.53
2019-02-02T22:46:32.252Z,61.35
2019-02-02T22:49:38.111Z,60.47
2019-02-02T22:52:44.081Z,60.74
2019-02-02T22:55:49.848Z,61.38
2019-02-02T22:58:55.661Z,61.73
2019-02-02T23:02:07.856Z,61.28
2019-02-02T23:05:51.366Z,60.94
2019-02-02T23:09:34.002Z,61.32
2019-02-02T23:13:10.859Z,62.18
2019-02-02T23:16:30.173Z,61.55
2019-02-02T23:19:36.066Z,61.67
2019-02-02T23:22:41.938Z,61.58
2019-02-02T23:25:47.697Z,61.72
2019-02-02T23:28:53.577Z,61.36
2019-02-02T23:31:59.975Z,60.93
2019-02-02T23:35:06.244Z,60.92
2019-02-02T23:38:12.005Z,61.47
2019-02-02T23:41:17.913Z,61.01
2019-02-02T23:44:23.855Z,60.91
2019-02-02T23:47:29.708Z,60.74
2019-02-02T23:50:35.508Z,60.47
2019-02-02T23:53:41.567Z,61.58
2019-02-02T23:56:47.550Z,60.91
2019-02-02T23:59:53.319Z,61.05
